Rockvale, Tennessee
Current Conditions -  °F | °C
As of 4:13 PM on Monday 26 Jan 2015 (Local Time) from KBNA Reporting Station
Overcast Overcast  
Wind Chill: 36°   Ceiling: 8000
Heat Index: 36°   Visibility: 10mi
Dew Point: 27°   Wind: 3mph
Humidity: 70%   Direction: 280°W
Pressure: 29.95"   Gusts: NA
Location:  35.76°N, 86.53°W
Report Text: KBNA 262213Z 28003KT 10SM SCT025 BKN080 OVC120 02/M03 A2995 RMK AO2
Loading
Personal Weather Stations






























Interactive Weather Map New forecast layout! Learn more

10-Day Weather Forecast

Advertisements
Track Severe Weather on mobile